Terminal Aerodrome Forecast
Issued by NWS Cleveland, OH

Home | Current Version | Previous Version | Text Only | Print | Product List | Glossary Off
Versions: 1 2 3 4 5 6 7 8 9 10 11 12 13

000
FTUS41 KCLE 252328
TAFMFD
TAF
KMFD 252328Z 2600/2624 23008KT P6SM OVC050
     FM260300 27005KT P6SM BKN035
     FM261200 29005KT P6SM BKN025
     FM261700 31008KT P6SM BKN035=

USA.gov is the U.S. government's official web portal to all federal, state and local government web resources and services.